createdAt,value
2023-04-18T00:00:56.527Z,27.23
2023-04-18T00:03:24.253Z,28.40
2023-04-18T00:05:51.926Z,28.13
2023-04-18T00:08:19.260Z,25.92
2023-04-18T00:10:46.641Z,26.77
2023-04-18T00:13:14.213Z,26.98
2023-04-18T00:15:43.839Z,28.30
2023-04-18T00:18:11.290Z,28.63
2023-04-18T00:20:39.343Z,26.85
2023-04-18T00:23:08.372Z,29.50
2023-04-18T00:25:35.681Z,28.65
2023-04-18T00:28:03.053Z,27.20
2023-04-18T00:30:30.383Z,27.00
2023-04-18T00:32:59.456Z,25.58
2023-04-18T00:35:26.831Z,26.42
2023-04-18T00:37:54.152Z,27.83
2023-04-18T00:40:21.457Z,26.33
2023-04-18T00:42:48.783Z,26.05
2023-04-18T00:45:16.197Z,26.48
2023-04-18T00:47:43.526Z,27.33
2023-04-18T00:50:11.846Z,25.52
2023-04-18T00:52:39.359Z,26.42
2023-04-18T00:55:07.999Z,26.83
2023-04-18T00:57:36.163Z,25.88
2023-04-18T01:00:26.705Z,27.80
2023-04-18T01:02:55.865Z,25.50
2023-04-18T01:05:23.698Z,26.60
2023-04-18T01:07:52.172Z,26.38
2023-04-18T01:10:19.615Z,25.80
2023-04-18T01:12:47.009Z,25.90
2023-04-18T01:15:14.347Z,23.88
2023-04-18T01:17:42.442Z,23.92
2023-04-18T01:20:10.486Z,25.02
2023-04-18T01:22:37.801Z,23.95
2023-04-18T01:25:09.554Z,23.52
2023-04-18T01:27:36.869Z,25.05
2023-04-18T01:30:04.561Z,22.83
2023-04-18T01:32:32.799Z,22.63
2023-04-18T01:35:00.178Z,21.67
2023-04-18T01:37:27.684Z,21.15
2023-04-18T01:39:55.014Z,21.70
2023-04-18T01:42:22.416Z,19.70
2023-04-18T01:44:49.722Z,20.23
2023-04-18T01:47:17.081Z,19.25
2023-04-18T01:49:48.164Z,19.02
2023-04-18T01:52:16.190Z,19.40
2023-04-18T01:54:43.825Z,19.08
2023-04-18T01:57:11.177Z,18.35
2023-04-18T01:59:40.872Z,17.30
2023-04-18T02:02:08.420Z,18.45
2023-04-18T02:04:35.913Z,17.63
2023-04-18T02:07:03.299Z,17.33
2023-04-18T02:09:30.948Z,16.42
2023-04-18T02:11:59.619Z,17.33
2023-04-18T02:14:37.305Z,16.50
2023-04-18T02:17:04.638Z,16.02
2023-04-18T02:19:32.041Z,15.57
2023-04-18T02:21:59.399Z,16.42
2023-04-18T02:24:26.723Z,15.77
2023-04-18T02:26:54.007Z,15.80
2023-04-18T02:29:21.359Z,16.63
2023-04-18T02:31:48.663Z,15.63
2023-04-18T02:34:16.348Z,15.68
2023-04-18T02:36:45.038Z,15.88
2023-04-18T02:39:12.528Z,16.02
2023-04-18T02:41:39.832Z,15.85
2023-04-18T02:44:08.341Z,16.77
2023-04-18T02:46:36.215Z,16.80
2023-04-18T02:49:03.596Z,17.05
2023-04-18T02:51:30.971Z,16.70
2023-04-18T02:54:04.042Z,15.77
2023-04-18T02:56:31.422Z,16.13
2023-04-18T02:58:58.778Z,15.85
2023-04-18T03:01:26.101Z,14.98
2023-04-18T03:03:53.728Z,14.85
2023-04-18T03:06:20.982Z,14.15
2023-04-18T03:08:48.308Z,14.93
2023-04-18T03:11:15.838Z,14.75
2023-04-18T03:13:43.273Z,14.13
2023-04-18T03:16:11.537Z,13.70
2023-04-18T03:18:38.935Z,13.85
2023-04-18T03:21:07.263Z,14.52
2023-04-18T03:23:34.584Z,13.52
2023-04-18T03:26:06.103Z,13.55
2023-04-18T03:28:33.551Z,13.65
2023-04-18T03:33:52.641Z,13.07
2023-04-18T03:36:25.407Z,13.10
2023-04-18T03:38:52.779Z,12.65
2023-04-18T03:41:20.120Z,12.82
2023-04-18T03:43:47.608Z,12.35
2023-04-18T03:46:15.370Z,12.45
2023-04-18T03:48:42.817Z,12.38
2023-04-18T03:51:10.264Z,11.80
2023-04-18T03:53:37.804Z,12.02
2023-04-18T03:56:05.595Z,12.38
2023-04-18T03:58:32.962Z,12.02
2023-04-18T04:01:01.215Z,13.18
2023-04-18T04:03:28.857Z,11.82
2023-04-18T04:06:17.777Z,12.55
2023-04-18T04:08:45.229Z,12.18
2023-04-18T04:11:12.666Z,12.20
2023-04-18T04:13:40.060Z,12.57
2023-04-18T04:16:07.987Z,11.80
2023-04-18T04:18:35.474Z,12.30
2023-04-18T04:21:03.872Z,11.77
2023-04-18T04:23:31.305Z,12.90
2023-04-18T04:25:58.918Z,13.48
2023-04-18T04:28:26.371Z,12.93
2023-04-18T04:30:54.106Z,12.85
2023-04-18T04:33:25.121Z,12.23
2023-04-18T04:36:24.127Z,12.25
2023-04-18T04:38:52.356Z,13.05
2023-04-18T04:41:19.661Z,14.05
2023-04-18T04:43:47.774Z,14.32
2023-04-18T04:46:15.549Z,14.15
2023-04-18T04:48:43.324Z,13.60
2023-04-18T04:51:10.588Z,13.88
2023-04-18T04:53:38.186Z,13.80
2023-04-18T04:56:06.083Z,14.15
2023-04-18T04:58:33.466Z,14.38
2023-04-18T05:01:01.076Z,13.50
2023-04-18T05:03:30.221Z,13.23
2023-04-18T05:05:57.635Z,14.48
2023-04-18T05:08:25.015Z,14.45
2023-04-18T05:10:52.357Z,14.10
2023-04-18T05:13:19.706Z,14.52
2023-04-18T05:15:47.048Z,14.75
2023-04-18T05:18:14.527Z,13.80
2023-04-18T05:20:41.928Z,15.35
2023-04-18T05:23:09.228Z,14.07
2023-04-18T05:25:36.752Z,14.45
2023-04-18T05:28:08.507Z,13.88
2023-04-18T05:30:37.484Z,14.55
2023-04-18T05:33:04.954Z,14.65
2023-04-18T05:35:32.599Z,14.77
2023-04-18T05:38:02.532Z,14.95
2023-04-18T05:40:33.063Z,15.18
2023-04-18T05:43:01.152Z,15.45
2023-04-18T05:45:29.593Z,14.23
2023-04-18T05:47:57.297Z,14.43
2023-04-18T05:50:24.784Z,15.15
2023-04-18T05:52:55.129Z,15.35
2023-04-18T05:55:25.804Z,15.63
2023-04-18T05:57:53.525Z,14.80
2023-04-18T06:00:21.126Z,15.55
2023-04-18T06:02:49.973Z,14.73
2023-04-18T06:05:20.464Z,15.30
2023-04-18T06:07:48.789Z,14.88
2023-04-18T06:10:19.129Z,15.60
2023-04-18T06:12:46.479Z,15.43
2023-04-18T06:15:13.896Z,15.68
2023-04-18T06:17:41.297Z,15.18
2023-04-18T06:20:09.321Z,14.52
2023-04-18T06:22:36.781Z,14.57
2023-04-18T06:25:04.248Z,14.90
2023-04-18T06:27:32.140Z,16.00
2023-04-18T06:29:59.875Z,15.57
2023-04-18T06:32:27.331Z,15.13
2023-04-18T06:34:54.688Z,16.10
2023-04-18T06:37:22.037Z,14.98
2023-04-18T06:39:49.318Z,15.45
2023-04-18T06:42:16.592Z,15.60
2023-04-18T06:44:44.041Z,15.75
2023-04-18T06:47:11.770Z,15.15
2023-04-18T06:49:39.081Z,15.43
2023-04-18T06:52:06.512Z,14.80
2023-04-18T06:54:33.903Z,15.18
2023-04-18T06:57:03.559Z,15.38
2023-04-18T06:59:30.908Z,14.93
2023-04-18T07:01:58.153Z,14.85
2023-04-18T07:04:25.915Z,15.75
2023-04-18T07:06:53.353Z,15.85
2023-04-18T07:09:20.844Z,15.15
2023-04-18T07:11:48.114Z,15.75
2023-04-18T07:14:15.624Z,15.43
2023-04-18T07:16:43.328Z,14.68
2023-04-18T07:19:10.638Z,14.52
2023-04-18T07:21:40.501Z,14.65
2023-04-18T07:24:07.882Z,14.77
2023-04-18T07:26:35.578Z,14.02
2023-04-18T07:29:02.940Z,13.65
2023-04-18T07:31:31.407Z,13.98
2023-04-18T07:33:58.968Z,13.35
2023-04-18T07:36:26.502Z,13.60
2023-04-18T07:38:53.747Z,13.68
2023-04-18T07:41:21.138Z,14.20
2023-04-18T07:43:48.442Z,14.00
2023-04-18T07:46:15.797Z,13.82
2023-04-18T07:48:43.294Z,13.32
2023-04-18T07:51:11.241Z,12.90
2023-04-18T07:53:39.614Z,14.38
2023-04-18T07:56:07.056Z,13.82
2023-04-18T07:58:37.484Z,13.85
2023-04-18T08:01:06.091Z,13.35
2023-04-18T08:03:35.042Z,12.73
2023-04-18T08:06:03.267Z,12.60
2023-04-18T08:08:30.688Z,12.23
2023-04-18T08:10:58.008Z,13.07
2023-04-18T08:13:25.358Z,12.43
2023-04-18T08:15:52.814Z,12.45
2023-04-18T08:18:20.173Z,12.35
2023-04-18T08:20:47.643Z,12.07
2023-04-18T08:23:15.040Z,12.80
2023-04-18T08:25:42.398Z,12.07
2023-04-18T08:28:09.807Z,12.52
2023-04-18T08:30:39.746Z,12.43
2023-04-18T08:33:07.263Z,12.93
2023-04-18T08:35:35.345Z,12.07
2023-04-18T08:38:03.049Z,12.25
2023-04-18T08:40:30.605Z,12.23
2023-04-18T08:42:58.941Z,11.80
2023-04-18T08:45:26.505Z,11.05
2023-04-18T08:47:53.952Z,11.63
2023-04-18T08:50:21.686Z,10.63
2023-04-18T08:52:50.906Z,11.05
2023-04-18T08:55:19.056Z,11.40
2023-04-18T08:57:47.624Z,10.95
2023-04-18T09:00:17.028Z,11.27
2023-04-18T09:02:45.017Z,10.65
2023-04-18T09:05:19.531Z,11.35
2023-04-18T09:07:48.210Z,10.85
2023-04-18T09:10:29.043Z,11.50
2023-04-18T09:15:27.284Z,11.95
2023-04-18T09:17:56.458Z,10.65
2023-04-18T09:20:30.816Z,10.90
2023-04-18T09:23:00.664Z,11.10
2023-04-18T09:25:43.287Z,12.05
2023-04-18T09:28:28.472Z,11.40
2023-04-18T09:30:57.749Z,11.77
2023-04-18T09:33:39.363Z,10.95
2023-04-18T09:36:24.358Z,11.30
2023-04-18T09:38:55.943Z,10.82
2023-04-18T09:41:24.370Z,10.10
2023-04-18T09:44:13.245Z,10.90
2023-04-18T09:46:44.482Z,11.15
2023-04-18T09:49:13.804Z,10.20
2023-04-18T09:51:43.059Z,10.45
2023-04-18T09:54:14.330Z,10.20
2023-04-18T09:56:44.280Z,9.80
2023-04-18T09:59:12.787Z,9.65
2023-04-18T10:01:41.237Z,9.68
2023-04-18T10:04:08.799Z,9.55
2023-04-18T10:06:39.742Z,9.93
2023-04-18T10:09:09.487Z,9.40
2023-04-18T10:11:37.189Z,9.13
2023-04-18T10:14:10.263Z,8.90
2023-04-18T10:16:38.678Z,9.52
2023-04-18T10:19:27.336Z,9.60
2023-04-18T10:21:59.424Z,8.98
2023-04-18T10:24:47.616Z,9.30
2023-04-18T10:27:18.169Z,9.65
2023-04-18T10:29:49.979Z,7.82
2023-04-18T10:32:18.782Z,9.20
2023-04-18T10:34:47.978Z,9.10
2023-04-18T10:37:15.613Z,8.98
2023-04-18T10:40:02.781Z,8.90
2023-04-18T10:43:02.840Z,8.40
2023-04-18T10:45:36.278Z,9.27
2023-04-18T10:48:24.575Z,8.40
2023-04-18T10:51:14.627Z,8.60
2023-04-18T10:53:54.358Z,8.63
2023-04-18T10:56:22.001Z,8.48
2023-04-18T10:58:53.533Z,8.75
2023-04-18T11:01:31.656Z,8.02
2023-04-18T11:04:00.995Z,7.65
2023-04-18T11:06:29.056Z,6.78
2023-04-18T11:09:13.495Z,6.47
2023-04-18T11:11:41.921Z,6.30
2023-04-18T11:14:09.406Z,4.93
2023-04-18T11:16:36.843Z,4.68
2023-04-18T11:19:21.494Z,4.38
2023-04-18T11:21:49.177Z,4.80
2023-04-18T11:24:28.089Z,4.32
2023-04-18T11:26:56.079Z,3.80
2023-04-18T11:29:23.806Z,4.03
2023-04-18T11:31:55.215Z,3.40
2023-04-18T11:34:32.547Z,3.20
2023-04-18T11:37:00.530Z,2.70
2023-04-18T11:39:27.951Z,2.50
2023-04-18T11:41:57.162Z,2.42
2023-04-18T11:44:25.868Z,2.45
2023-04-18T11:46:53.917Z,2.10
2023-04-18T11:49:30.477Z,2.22
2023-04-18T11:51:58.343Z,3.40
2023-04-18T11:54:43.216Z,3.40
2023-04-18T11:57:32.008Z,3.60
2023-04-18T12:00:00.959Z,3.88
2023-04-18T12:02:46.101Z,4.30
2023-04-18T12:05:24.485Z,4.30
2023-04-18T12:07:52.033Z,4.30
2023-04-18T12:10:49.072Z,5.53
2023-04-18T12:13:16.769Z,5.30
2023-04-18T12:15:45.678Z,4.93
2023-04-18T12:18:15.409Z,5.75
2023-04-18T12:20:50.589Z,5.38
2023-04-18T12:23:35.862Z,5.20
2023-04-18T12:26:14.272Z,6.10
2023-04-18T12:28:45.839Z,6.20
2023-04-18T12:31:13.228Z,6.03
2023-04-18T12:33:40.643Z,6.47
2023-04-18T12:36:09.057Z,6.80
2023-04-18T12:38:36.531Z,7.35
2023-04-18T12:41:06.841Z,6.78
2023-04-18T12:43:34.330Z,7.38
2023-04-18T12:46:01.746Z,7.68
2023-04-18T12:48:29.053Z,8.35
2023-04-18T12:50:56.325Z,8.35
2023-04-18T12:53:23.625Z,8.85
2023-04-18T12:55:51.007Z,8.40
2023-04-18T12:58:20.641Z,8.60
2023-04-18T13:00:48.030Z,8.57
2023-04-18T13:03:15.639Z,9.27
2023-04-18T13:05:43.165Z,9.65
2023-04-18T13:08:17.000Z,9.73
2023-04-18T13:10:46.146Z,9.25
2023-04-18T13:13:13.569Z,9.80
2023-04-18T13:15:41.347Z,9.57
2023-04-18T13:18:08.787Z,8.90
2023-04-18T13:20:36.663Z,9.88
2023-04-18T13:23:04.126Z,10.05
2023-04-18T13:25:31.552Z,9.68
2023-04-18T13:28:00.878Z,9.73
2023-04-18T13:30:28.549Z,9.88
2023-04-18T13:32:56.787Z,10.18
2023-04-18T13:35:24.365Z,10.13
2023-04-18T13:37:51.725Z,10.80
2023-04-18T13:40:19.138Z,10.20
2023-04-18T13:42:46.455Z,10.23
2023-04-18T13:45:13.729Z,10.32
2023-04-18T13:47:41.100Z,10.77
2023-04-18T13:50:09.041Z,10.63
2023-04-18T13:52:36.450Z,10.40
2023-04-18T13:55:04.029Z,10.60
2023-04-18T13:57:32.390Z,10.52
2023-04-18T13:59:59.906Z,10.68
2023-04-18T14:02:27.711Z,11.30
2023-04-18T14:04:55.538Z,10.63
2023-04-18T14:07:23.087Z,10.82
2023-04-18T14:09:52.058Z,11.63
2023-04-18T14:12:21.058Z,11.35
2023-04-18T14:14:48.350Z,12.63
2023-04-18T14:17:15.920Z,12.00
2023-04-18T14:19:43.455Z,12.30
2023-04-18T14:22:11.075Z,12.15
2023-04-18T14:24:38.538Z,13.00
2023-04-18T14:27:06.248Z,11.82
2023-04-18T14:29:33.632Z,13.02
2023-04-18T14:32:00.955Z,12.82
2023-04-18T14:34:28.327Z,13.20
2023-04-18T14:36:58.776Z,13.15
2023-04-18T14:39:31.522Z,12.55
2023-04-18T14:41:59.304Z,12.93
2023-04-18T14:44:26.867Z,12.75
2023-04-18T14:46:54.391Z,13.43
2023-04-18T14:49:23.675Z,13.88
2023-04-18T14:51:54.299Z,14.00
2023-04-18T14:54:21.900Z,14.52
2023-04-18T14:56:49.408Z,13.73
2023-04-18T14:59:19.629Z,15.25
2023-04-18T15:01:47.496Z,14.45
2023-04-18T15:04:15.492Z,13.60
2023-04-18T15:06:43.191Z,13.95
2023-04-18T15:09:11.193Z,14.27
2023-04-18T15:11:38.757Z,13.95
2023-04-18T15:14:06.717Z,14.65
2023-04-18T15:16:35.314Z,14.18
2023-04-18T15:19:02.968Z,14.77
2023-04-18T15:21:30.518Z,16.60
2023-04-18T15:23:59.435Z,17.00
2023-04-18T15:26:27.597Z,16.30
2023-04-18T15:28:55.102Z,14.85
2023-04-18T15:31:26.212Z,15.77
2023-04-18T15:33:56.352Z,16.50
2023-04-18T15:36:30.494Z,15.65
2023-04-18T15:38:57.964Z,15.75
2023-04-18T15:41:25.948Z,15.98
2023-04-18T15:43:54.004Z,15.30
2023-04-18T15:46:24.711Z,15.90
2023-04-18T15:48:58.308Z,15.88
2023-04-18T15:51:30.636Z,17.00
2023-04-18T15:53:58.143Z,17.20
2023-04-18T15:56:36.826Z,15.55
2023-04-18T15:59:07.277Z,15.77
2023-04-18T16:01:37.055Z,16.08
2023-04-18T16:04:13.973Z,15.98
2023-04-18T16:06:44.471Z,16.13
2023-04-18T16:09:12.191Z,16.40
2023-04-18T16:11:49.289Z,17.25
2023-04-18T16:14:26.520Z,16.88
2023-04-18T16:16:55.051Z,16.48
2023-04-18T16:19:26.204Z,15.93
2023-04-18T16:21:58.706Z,16.98
2023-04-18T16:24:30.303Z,16.65
2023-04-18T16:27:09.965Z,17.38
2023-04-18T16:29:40.223Z,17.00
2023-04-18T16:32:10.434Z,17.20
2023-04-18T16:34:40.615Z,15.90
2023-04-18T16:37:23.852Z,15.00
2023-04-18T16:42:35.752Z,16.17
2023-04-18T16:47:47.321Z,15.23
2023-04-18T16:50:15.895Z,16.42
2023-04-18T16:52:43.294Z,16.08
2023-04-18T16:55:13.933Z,16.42
2023-04-18T16:57:43.479Z,15.18
2023-04-18T17:00:14.304Z,14.82
2023-04-18T17:02:53.698Z,15.98
2023-04-18T17:05:23.275Z,14.82
2023-04-18T17:07:52.124Z,15.50
2023-04-18T17:10:20.401Z,15.15
2023-04-18T17:12:52.772Z,16.27
2023-04-18T17:15:21.390Z,15.07
2023-04-18T17:17:48.958Z,14.52
2023-04-18T17:20:18.056Z,15.05
2023-04-18T17:22:46.674Z,15.63
2023-04-18T17:25:21.836Z,14.90
2023-04-18T17:28:04.663Z,14.25
2023-04-18T17:30:38.585Z,15.18
2023-04-18T17:38:44.978Z,14.35
2023-04-18T17:41:16.219Z,14.73
2023-04-18T17:44:03.270Z,14.68
2023-04-18T17:46:33.175Z,14.88
2023-04-18T17:49:04.768Z,15.48
2023-04-18T17:51:34.002Z,15.68
2023-04-18T17:54:02.055Z,14.88
2023-04-18T17:56:35.746Z,14.38
2023-04-18T17:59:05.900Z,15.50
2023-04-18T18:01:35.299Z,14.10
2023-04-18T18:04:03.868Z,15.32
2023-04-18T18:06:34.343Z,15.40
2023-04-18T18:09:02.547Z,16.05
2023-04-18T18:11:33.579Z,16.27
2023-04-18T18:14:14.561Z,15.98
2023-04-18T18:16:42.337Z,15.75
2023-04-18T18:19:12.197Z,15.80
2023-04-18T18:21:45.400Z,15.15
2023-04-18T18:24:16.139Z,15.55
2023-04-18T18:26:58.197Z,15.43
2023-04-18T18:29:25.747Z,15.45
2023-04-18T18:31:53.269Z,15.50
2023-04-18T18:34:21.644Z,16.25
2023-04-18T18:36:50.846Z,17.05
2023-04-18T18:39:18.440Z,15.57
2023-04-18T18:41:46.253Z,16.05
2023-04-18T18:44:14.253Z,15.60
2023-04-18T18:46:43.372Z,16.52
2023-04-18T18:49:11.331Z,15.77
2023-04-18T18:51:39.056Z,16.20
2023-04-18T18:54:06.510Z,18.23
2023-04-18T18:56:34.628Z,17.77
2023-04-18T18:59:02.607Z,17.20
2023-04-18T19:01:30.413Z,17.08
2023-04-18T19:03:58.200Z,16.95
2023-04-18T19:06:26.649Z,16.70
2023-04-18T19:08:54.146Z,17.27
2023-04-18T19:11:23.927Z,16.15
2023-04-18T19:13:56.162Z,16.10
2023-04-18T19:16:25.652Z,17.05
2023-04-18T19:18:54.054Z,17.45
2023-04-18T19:21:21.690Z,17.25
2023-04-18T19:23:49.697Z,17.60
2023-04-18T19:26:17.332Z,17.23
2023-04-18T19:28:45.089Z,18.40
2023-04-18T19:31:12.791Z,17.23
2023-04-18T19:33:43.462Z,17.92
2023-04-18T19:36:16.456Z,18.13
2023-04-18T19:38:46.752Z,18.63
2023-04-18T19:41:14.218Z,18.45
2023-04-18T19:43:42.997Z,18.13
2023-04-18T19:46:13.523Z,18.67
2023-04-18T19:48:41.629Z,17.65
2023-04-18T19:51:09.312Z,18.58
2023-04-18T19:53:36.872Z,18.52
2023-04-18T19:56:04.930Z,19.35
2023-04-18T19:58:47.542Z,19.75
2023-04-18T20:01:19.364Z,19.15
2023-04-18T20:03:48.289Z,18.97
2023-04-18T20:06:17.736Z,20.35
2023-04-18T20:08:54.155Z,20.50
2023-04-18T20:11:27.952Z,20.25
2023-04-18T20:13:56.755Z,20.13
2023-04-18T20:16:26.141Z,19.45
2023-04-18T20:18:57.118Z,19.48
2023-04-18T20:21:28.548Z,18.83
2023-04-18T20:23:59.373Z,18.92
2023-04-18T20:26:30.058Z,17.60
2023-04-18T20:29:06.698Z,19.33
2023-04-18T20:31:35.359Z,20.40
2023-04-18T20:34:03.015Z,19.42
2023-04-18T20:36:30.793Z,19.15
2023-04-18T20:38:58.192Z,17.33
2023-04-18T20:41:27.119Z,17.83
2023-04-18T20:43:54.756Z,18.15
2023-04-18T20:46:22.363Z,17.60
2023-04-18T20:48:49.786Z,18.17
2023-04-18T20:51:17.366Z,18.30
2023-04-18T20:53:44.731Z,17.13
2023-04-18T20:56:12.373Z,18.15
2023-04-18T20:58:40.592Z,19.08
2023-04-18T21:01:07.961Z,19.55
2023-04-18T21:03:35.659Z,17.73
2023-04-18T21:06:03.153Z,19.23
2023-04-18T21:08:31.732Z,19.67
2023-04-18T21:10:59.066Z,18.15
2023-04-18T21:13:26.417Z,19.23
2023-04-18T21:15:54.020Z,19.75
2023-04-18T21:18:21.436Z,18.05
2023-04-18T21:20:49.079Z,17.48
2023-04-18T21:23:16.527Z,16.60
2023-04-18T21:25:43.889Z,17.73
2023-04-18T21:28:14.626Z,16.77
2023-04-18T21:30:42.088Z,15.65
2023-04-18T21:33:09.637Z,15.25
2023-04-18T21:35:36.987Z,14.73
2023-04-18T21:38:04.405Z,14.02
2023-04-18T21:40:33.367Z,13.95
2023-04-18T21:43:00.750Z,13.10
2023-04-18T21:45:35.843Z,13.02
2023-04-18T21:48:03.469Z,12.90
2023-04-18T21:50:31.017Z,13.02
2023-04-18T21:52:58.332Z,13.10
2023-04-18T21:55:25.749Z,12.77
2023-04-18T21:57:54.331Z,13.45
2023-04-18T22:00:21.825Z,12.40
2023-04-18T22:02:49.367Z,12.02
2023-04-18T22:05:17.110Z,12.85
2023-04-18T22:07:56.796Z,11.60
2023-04-18T22:10:25.366Z,11.98
2023-04-18T22:12:54.135Z,13.10
2023-04-18T22:15:21.818Z,12.68
2023-04-18T22:17:50.409Z,12.43
2023-04-18T22:20:17.966Z,11.63
2023-04-18T22:22:45.474Z,12.27
2023-04-18T22:25:12.848Z,12.32
2023-04-18T22:27:40.488Z,12.35
2023-04-18T22:30:08.550Z,12.20
2023-04-18T22:32:36.231Z,12.20
2023-04-18T22:35:04.096Z,12.02
2023-04-18T22:37:31.505Z,13.00
2023-04-18T22:39:58.947Z,13.10
2023-04-18T22:42:26.304Z,12.30
2023-04-18T22:44:53.676Z,12.20
2023-04-18T22:47:21.376Z,13.13
2023-04-18T22:49:49.253Z,12.98
2023-04-18T22:52:17.094Z,13.02
2023-04-18T22:54:44.570Z,12.48
2023-04-18T22:57:13.330Z,12.48
2023-04-18T22:59:40.784Z,13.10
2023-04-18T23:02:08.332Z,12.13
2023-04-18T23:04:36.162Z,12.20
2023-04-18T23:07:03.735Z,12.65
2023-04-18T23:09:31.603Z,12.38
2023-04-18T23:11:58.953Z,12.77
2023-04-18T23:14:26.616Z,12.00
2023-04-18T23:16:53.985Z,12.63
2023-04-18T23:19:21.597Z,12.13
2023-04-18T23:21:49.680Z,12.23
2023-04-18T23:24:17.360Z,12.38
2023-04-18T23:26:44.925Z,12.90
2023-04-18T23:29:12.527Z,12.85
2023-04-18T23:31:40.014Z,13.00
2023-04-18T23:34:07.448Z,13.65
2023-04-18T23:36:34.940Z,13.70
2023-04-18T23:39:02.417Z,14.07
2023-04-18T23:41:29.994Z,13.48
2023-04-18T23:43:57.343Z,13.98
2023-04-18T23:46:24.812Z,13.55
2023-04-18T23:48:52.422Z,13.45
2023-04-18T23:51:20.015Z,14.48
2023-04-18T23:53:47.520Z,14.25
2023-04-18T23:56:15.046Z,14.10
2023-04-18T23:58:42.528Z,14.60
